sensor_id;sensor_type;location;lat;lon;timestamp;P1;durP1;ratioP1;P2;durP2;ratioP2
5054;SDS011;13829;48.990;8.346;2023-07-02T00:02:20;6.93;;;5.13;;
5054;SDS011;13829;48.990;8.346;2023-07-02T00:04:47;5.90;;;4.90;;
5054;SDS011;13829;48.990;8.346;2023-07-02T00:07:15;6.03;;;5.07;;
5054;SDS011;13829;48.990;8.346;2023-07-02T00:09:42;4.30;;;3.90;;
5054;SDS011;13829;48.990;8.346;2023-07-02T00:12:10;4.90;;;4.30;;
5054;SDS011;13829;48.990;8.346;2023-07-02T00:14:37;5.73;;;4.47;;
5054;SDS011;13829;48.990;8.346;2023-07-02T00:17:04;5.73;;;4.77;;
5054;SDS011;13829;48.990;8.346;2023-07-02T00:19:31;5.07;;;4.33;;
5054;SDS011;13829;48.990;8.346;2023-07-02T00:21:58;4.53;;;4.13;;
5054;SDS011;13829;48.990;8.346;2023-07-02T00:24:26;7.33;;;4.87;;
5054;SDS011;13829;48.990;8.346;2023-07-02T00:26:54;6.27;;;4.73;;
5054;SDS011;13829;48.990;8.346;2023-07-02T00:29:21;5.10;;;4.60;;
5054;SDS011;13829;48.990;8.346;2023-07-02T00:31:48;5.20;;;4.60;;
5054;SDS011;13829;48.990;8.346;2023-07-02T00:34:15;8.13;;;4.77;;
5054;SDS011;13829;48.990;8.346;2023-07-02T00:36:42;4.57;;;4.07;;
5054;SDS011;13829;48.990;8.346;2023-07-02T00:39:09;5.30;;;4.30;;
5054;SDS011;13829;48.990;8.346;2023-07-02T00:41:38;5.27;;;4.77;;
5054;SDS011;13829;48.990;8.346;2023-07-02T00:44:07;4.63;;;4.23;;
5054;SDS011;13829;48.990;8.346;2023-07-02T00:46:35;5.90;;;4.57;;
5054;SDS011;13829;48.990;8.346;2023-07-02T00:49:02;5.70;;;4.37;;
5054;SDS011;13829;48.990;8.346;2023-07-02T00:51:31;7.30;;;4.20;;
5054;SDS011;13829;48.990;8.346;2023-07-02T00:53:58;9.53;;;5.13;;
5054;SDS011;13829;48.990;8.346;2023-07-02T00:56:25;4.93;;;4.43;;
5054;SDS011;13829;48.990;8.346;2023-07-02T00:58:54;7.87;;;5.33;;
5054;SDS011;13829;48.990;8.346;2023-07-02T01:01:24;6.20;;;4.67;;
5054;SDS011;13829;48.990;8.346;2023-07-02T01:03:55;10.80;;;5.43;;
5054;SDS011;13829;48.990;8.346;2023-07-02T01:06:25;8.77;;;5.07;;
5054;SDS011;13829;48.990;8.346;2023-07-02T01:08:54;5.40;;;4.70;;
5054;SDS011;13829;48.990;8.346;2023-07-02T01:11:24;7.27;;;4.90;;
5054;SDS011;13829;48.990;8.346;2023-07-02T01:13:58;7.40;;;4.63;;
5054;SDS011;13829;48.990;8.346;2023-07-02T01:16:30;6.63;;;4.60;;
5054;SDS011;13829;48.990;8.346;2023-07-02T01:18:58;5.63;;;4.90;;
5054;SDS011;13829;48.990;8.346;2023-07-02T01:21:31;4.97;;;4.47;;
5054;SDS011;13829;48.990;8.346;2023-07-02T01:23:59;5.90;;;5.00;;
5054;SDS011;13829;48.990;8.346;2023-07-02T01:26:28;6.03;;;4.80;;
5054;SDS011;13829;48.990;8.346;2023-07-02T01:28:58;5.43;;;4.63;;
5054;SDS011;13829;48.990;8.346;2023-07-02T01:31:26;5.37;;;4.43;;
5054;SDS011;13829;48.990;8.346;2023-07-02T01:33:53;6.87;;;4.43;;
5054;SDS011;13829;48.990;8.346;2023-07-02T01:36:20;5.87;;;5.17;;
5054;SDS011;13829;48.990;8.346;2023-07-02T01:38:48;6.93;;;5.37;;
5054;SDS011;13829;48.990;8.346;2023-07-02T01:41:15;11.47;;;4.77;;
5054;SDS011;13829;48.990;8.346;2023-07-02T01:43:42;7.50;;;5.20;;
5054;SDS011;13829;48.990;8.346;2023-07-02T01:46:09;5.27;;;4.23;;
5054;SDS011;13829;48.990;8.346;2023-07-02T01:48:36;5.17;;;4.67;;
5054;SDS011;13829;48.990;8.346;2023-07-02T01:51:03;4.37;;;3.97;;
5054;SDS011;13829;48.990;8.346;2023-07-02T01:53:30;8.70;;;4.50;;
5054;SDS011;13829;48.990;8.346;2023-07-02T01:55:58;7.40;;;4.23;;
5054;SDS011;13829;48.990;8.346;2023-07-02T01:58:25;4.67;;;3.83;;
5054;SDS011;13829;48.990;8.346;2023-07-02T02:00:52;6.57;;;3.87;;
5054;SDS011;13829;48.990;8.346;2023-07-02T02:03:19;7.13;;;3.93;;
5054;SDS011;13829;48.990;8.346;2023-07-02T02:05:46;6.17;;;3.90;;
5054;SDS011;13829;48.990;8.346;2023-07-02T02:08:13;5.93;;;3.73;;
5054;SDS011;13829;48.990;8.346;2023-07-02T02:10:40;6.97;;;4.03;;
5054;SDS011;13829;48.990;8.346;2023-07-02T02:13:08;10.90;;;4.03;;
5054;SDS011;13829;48.990;8.346;2023-07-02T02:15:35;5.00;;;3.37;;
5054;SDS011;13829;48.990;8.346;2023-07-02T02:18:02;8.83;;;3.50;;
5054;SDS011;13829;48.990;8.346;2023-07-02T02:20:29;7.50;;;3.83;;
5054;SDS011;13829;48.990;8.346;2023-07-02T02:22:56;5.53;;;3.67;;
5054;SDS011;13829;48.990;8.346;2023-07-02T02:25:23;4.60;;;3.53;;
5054;SDS011;13829;48.990;8.346;2023-07-02T02:27:51;7.93;;;4.37;;
5054;SDS011;13829;48.990;8.346;2023-07-02T02:30:19;6.23;;;3.60;;
5054;SDS011;13829;48.990;8.346;2023-07-02T02:32:46;8.13;;;3.60;;
5054;SDS011;13829;48.990;8.346;2023-07-02T02:35:14;6.40;;;3.67;;
5054;SDS011;13829;48.990;8.346;2023-07-02T02:37:41;4.60;;;3.63;;
5054;SDS011;13829;48.990;8.346;2023-07-02T02:40:08;10.27;;;3.73;;
5054;SDS011;13829;48.990;8.346;2023-07-02T02:42:36;6.27;;;3.77;;
5054;SDS011;13829;48.990;8.346;2023-07-02T02:45:04;8.40;;;3.80;;
5054;SDS011;13829;48.990;8.346;2023-07-02T02:47:34;12.13;;;4.00;;
5054;SDS011;13829;48.990;8.346;2023-07-02T02:50:00;4.53;;;3.47;;
5054;SDS011;13829;48.990;8.346;2023-07-02T02:52:28;9.37;;;4.40;;
5054;SDS011;13829;48.990;8.346;2023-07-02T02:54:54;7.03;;;4.10;;
5054;SDS011;13829;48.990;8.346;2023-07-02T02:57:21;7.97;;;3.87;;
5054;SDS011;13829;48.990;8.346;2023-07-02T02:59:48;5.87;;;3.77;;
5054;SDS011;13829;48.990;8.346;2023-07-02T03:02:15;5.90;;;3.83;;
5054;SDS011;13829;48.990;8.346;2023-07-02T03:04:43;6.37;;;3.80;;
5054;SDS011;13829;48.990;8.346;2023-07-02T03:07:10;6.80;;;4.03;;
5054;SDS011;13829;48.990;8.346;2023-07-02T03:09:37;8.33;;;4.13;;
5054;SDS011;13829;48.990;8.346;2023-07-02T03:12:04;9.83;;;4.17;;
5054;SDS011;13829;48.990;8.346;2023-07-02T03:14:32;10.90;;;4.53;;
5054;SDS011;13829;48.990;8.346;2023-07-02T03:16:59;7.10;;;3.90;;
5054;SDS011;13829;48.990;8.346;2023-07-02T03:19:26;8.67;;;4.10;;
5054;SDS011;13829;48.990;8.346;2023-07-02T03:21:55;4.13;;;3.20;;
5054;SDS011;13829;48.990;8.346;2023-07-02T03:24:21;6.70;;;3.87;;
5054;SDS011;13829;48.990;8.346;2023-07-02T03:26:48;9.10;;;3.83;;
5054;SDS011;13829;48.990;8.346;2023-07-02T03:29:15;7.17;;;4.00;;
5054;SDS011;13829;48.990;8.346;2023-07-02T03:31:44;9.27;;;3.70;;
5054;SDS011;13829;48.990;8.346;2023-07-02T03:34:11;8.70;;;4.20;;
5054;SDS011;13829;48.990;8.346;2023-07-02T03:36:39;4.63;;;3.67;;
5054;SDS011;13829;48.990;8.346;2023-07-02T03:39:07;6.40;;;3.83;;
5054;SDS011;13829;48.990;8.346;2023-07-02T03:41:34;8.40;;;3.90;;
5054;SDS011;13829;48.990;8.346;2023-07-02T03:44:01;6.57;;;3.77;;
5054;SDS011;13829;48.990;8.346;2023-07-02T03:46:28;7.93;;;3.90;;
5054;SDS011;13829;48.990;8.346;2023-07-02T03:48:56;9.07;;;4.00;;
5054;SDS011;13829;48.990;8.346;2023-07-02T03:51:23;7.80;;;4.57;;
5054;SDS011;13829;48.990;8.346;2023-07-02T03:53:50;10.03;;;4.37;;
5054;SDS011;13829;48.990;8.346;2023-07-02T03:56:18;6.77;;;4.27;;
5054;SDS011;13829;48.990;8.346;2023-07-02T03:58:45;7.93;;;4.70;;
5054;SDS011;13829;48.990;8.346;2023-07-02T04:01:12;6.13;;;4.00;;
5054;SDS011;13829;48.990;8.346;2023-07-02T04:03:41;6.63;;;4.40;;
5054;SDS011;13829;48.990;8.346;2023-07-02T04:06:14;11.83;;;4.27;;
5054;SDS011;13829;48.990;8.346;2023-07-02T04:08:41;7.80;;;4.70;;
5054;SDS011;13829;48.990;8.346;2023-07-02T04:11:09;12.20;;;4.63;;
5054;SDS011;13829;48.990;8.346;2023-07-02T04:13:37;7.73;;;4.37;;
5054;SDS011;13829;48.990;8.346;2023-07-02T04:16:05;6.90;;;4.77;;
5054;SDS011;13829;48.990;8.346;2023-07-02T04:18:32;8.27;;;5.17;;
5054;SDS011;13829;48.990;8.346;2023-07-02T04:21:00;9.57;;;5.07;;
5054;SDS011;13829;48.990;8.346;2023-07-02T04:23:28;10.97;;;4.93;;
5054;SDS011;13829;48.990;8.346;2023-07-02T04:25:55;9.17;;;5.17;;
5054;SDS011;13829;48.990;8.346;2023-07-02T04:28:22;8.30;;;4.57;;
5054;SDS011;13829;48.990;8.346;2023-07-02T04:30:50;8.77;;;4.57;;
5054;SDS011;13829;48.990;8.346;2023-07-02T04:33:18;7.73;;;4.40;;
5054;SDS011;13829;48.990;8.346;2023-07-02T04:35:45;7.87;;;4.73;;
5054;SDS011;13829;48.990;8.346;2023-07-02T04:38:12;7.87;;;5.10;;
5054;SDS011;13829;48.990;8.346;2023-07-02T04:40:39;9.80;;;5.10;;
5054;SDS011;13829;48.990;8.346;2023-07-02T04:43:09;9.90;;;4.90;;
5054;SDS011;13829;48.990;8.346;2023-07-02T04:45:37;10.37;;;5.00;;
5054;SDS011;13829;48.990;8.346;2023-07-02T04:48:06;6.30;;;4.50;;
5054;SDS011;13829;48.990;8.346;2023-07-02T04:50:33;8.57;;;5.27;;
5054;SDS011;13829;48.990;8.346;2023-07-02T04:53:00;8.63;;;5.20;;
5054;SDS011;13829;48.990;8.346;2023-07-02T04:55:27;7.03;;;4.00;;
5054;SDS011;13829;48.990;8.346;2023-07-02T04:57:54;8.50;;;4.67;;
5054;SDS011;13829;48.990;8.346;2023-07-02T05:00:21;9.03;;;4.50;;
5054;SDS011;13829;48.990;8.346;2023-07-02T05:02:48;7.60;;;4.63;;
5054;SDS011;13829;48.990;8.346;2023-07-02T05:05:16;6.90;;;4.70;;
5054;SDS011;13829;48.990;8.346;2023-07-02T05:07:43;10.33;;;5.10;;
5054;SDS011;13829;48.990;8.346;2023-07-02T05:10:10;8.53;;;4.60;;
5054;SDS011;13829;48.990;8.346;2023-07-02T05:12:37;6.90;;;4.30;;
5054;SDS011;13829;48.990;8.346;2023-07-02T05:15:05;9.18;;;5.47;;
5054;SDS011;13829;48.990;8.346;2023-07-02T05:17:33;7.60;;;5.13;;
5054;SDS011;13829;48.990;8.346;2023-07-02T05:20:01;7.68;;;5.40;;
5054;SDS011;13829;48.990;8.346;2023-07-02T05:22:30;11.43;;;5.10;;
5054;SDS011;13829;48.990;8.346;2023-07-02T05:24:57;10.20;;;5.97;;
5054;SDS011;13829;48.990;8.346;2023-07-02T05:27:24;10.23;;;5.10;;
5054;SDS011;13829;48.990;8.346;2023-07-02T05:29:51;10.75;;;5.22;;
5054;SDS011;13829;48.990;8.346;2023-07-02T05:32:18;11.27;;;5.28;;
5054;SDS011;13829;48.990;8.346;2023-07-02T05:34:45;9.63;;;4.97;;
5054;SDS011;13829;48.990;8.346;2023-07-02T05:37:12;8.40;;;4.83;;
5054;SDS011;13829;48.990;8.346;2023-07-02T05:39:40;10.65;;;5.38;;
5054;SDS011;13829;48.990;8.346;2023-07-02T05:42:07;12.20;;;5.40;;
5054;SDS011;13829;48.990;8.346;2023-07-02T05:44:34;10.27;;;5.22;;
5054;SDS011;13829;48.990;8.346;2023-07-02T05:47:01;9.82;;;5.18;;
5054;SDS011;13829;48.990;8.346;2023-07-02T05:49:28;10.75;;;5.35;;
5054;SDS011;13829;48.990;8.346;2023-07-02T05:51:55;6.75;;;4.63;;
5054;SDS011;13829;48.990;8.346;2023-07-02T05:54:22;8.23;;;5.03;;
5054;SDS011;13829;48.990;8.346;2023-07-02T05:56:50;7.03;;;5.05;;
5054;SDS011;13829;48.990;8.346;2023-07-02T05:59:17;7.93;;;5.07;;
5054;SDS011;13829;48.990;8.346;2023-07-02T06:01:44;7.65;;;4.97;;
5054;SDS011;13829;48.990;8.346;2023-07-02T06:04:11;10.88;;;4.75;;
5054;SDS011;13829;48.990;8.346;2023-07-02T06:06:38;10.07;;;5.15;;
5054;SDS011;13829;48.990;8.346;2023-07-02T06:09:05;9.15;;;4.90;;
5054;SDS011;13829;48.990;8.346;2023-07-02T06:11:32;7.63;;;4.95;;
5054;SDS011;13829;48.990;8.346;2023-07-02T06:14:01;11.20;;;5.55;;
5054;SDS011;13829;48.990;8.346;2023-07-02T06:16:28;10.97;;;5.00;;
5054;SDS011;13829;48.990;8.346;2023-07-02T06:18:54;10.10;;;5.33;;
5054;SDS011;13829;48.990;8.346;2023-07-02T06:21:21;13.43;;;5.50;;
5054;SDS011;13829;48.990;8.346;2023-07-02T06:23:54;9.00;;;5.75;;
5054;SDS011;13829;48.990;8.346;2023-07-02T06:26:22;8.93;;;6.18;;
5054;SDS011;13829;48.990;8.346;2023-07-02T06:28:49;8.05;;;6.00;;
5054;SDS011;13829;48.990;8.346;2023-07-02T06:31:17;12.27;;;6.68;;
5054;SDS011;13829;48.990;8.346;2023-07-02T06:33:44;10.15;;;7.13;;
5054;SDS011;13829;48.990;8.346;2023-07-02T06:36:11;10.30;;;6.70;;
5054;SDS011;13829;48.990;8.346;2023-07-02T06:38:39;14.05;;;7.30;;
5054;SDS011;13829;48.990;8.346;2023-07-02T06:41:07;13.02;;;7.10;;
5054;SDS011;13829;48.990;8.346;2023-07-02T06:43:34;16.00;;;7.57;;
5054;SDS011;13829;48.990;8.346;2023-07-02T06:46:01;12.45;;;7.63;;
5054;SDS011;13829;48.990;8.346;2023-07-02T06:48:29;12.38;;;8.20;;
5054;SDS011;13829;48.990;8.346;2023-07-02T06:50:56;11.40;;;8.10;;
5054;SDS011;13829;48.990;8.346;2023-07-02T06:53:23;16.05;;;9.00;;
5054;SDS011;13829;48.990;8.346;2023-07-02T06:55:50;15.23;;;9.63;;
5054;SDS011;13829;48.990;8.346;2023-07-02T06:58:17;18.70;;;10.63;;
5054;SDS011;13829;48.990;8.346;2023-07-02T07:00:44;14.32;;;9.68;;
5054;SDS011;13829;48.990;8.346;2023-07-02T07:03:11;17.38;;;11.02;;
5054;SDS011;13829;48.990;8.346;2023-07-02T07:05:39;17.13;;;10.95;;
5054;SDS011;13829;48.990;8.346;2023-07-02T07:08:07;13.50;;;11.07;;
5054;SDS011;13829;48.990;8.346;2023-07-02T07:10:34;15.95;;;11.02;;
5054;SDS011;13829;48.990;8.346;2023-07-02T07:13:01;17.27;;;11.52;;
5054;SDS011;13829;48.990;8.346;2023-07-02T07:15:29;18.30;;;12.73;;
5054;SDS011;13829;48.990;8.346;2023-07-02T07:17:59;19.67;;;11.77;;
5054;SDS011;13829;48.990;8.346;2023-07-02T07:20:26;13.90;;;12.25;;
5054;SDS011;13829;48.990;8.346;2023-07-02T07:22:55;15.98;;;12.48;;
5054;SDS011;13829;48.990;8.346;2023-07-02T07:25:22;16.63;;;12.95;;
5054;SDS011;13829;48.990;8.346;2023-07-02T07:27:49;17.38;;;13.30;;
5054;SDS011;13829;48.990;8.346;2023-07-02T07:30:16;16.75;;;12.02;;
5054;SDS011;13829;48.990;8.346;2023-07-02T07:32:47;17.88;;;13.98;;
5054;SDS011;13829;48.990;8.346;2023-07-02T07:35:15;17.30;;;12.90;;
5054;SDS011;13829;48.990;8.346;2023-07-02T07:37:43;15.38;;;12.57;;
5054;SDS011;13829;48.990;8.346;2023-07-02T07:40:12;13.32;;;11.93;;
5054;SDS011;13829;48.990;8.346;2023-07-02T07:42:40;16.98;;;12.38;;
5054;SDS011;13829;48.990;8.346;2023-07-02T07:45:07;15.77;;;12.80;;
5054;SDS011;13829;48.990;8.346;2023-07-02T07:47:36;16.30;;;13.20;;
5054;SDS011;13829;48.990;8.346;2023-07-02T07:50:03;19.02;;;15.27;;
5054;SDS011;13829;48.990;8.346;2023-07-02T07:52:35;19.05;;;15.20;;
5054;SDS011;13829;48.990;8.346;2023-07-02T07:55:04;23.98;;;16.20;;
5054;SDS011;13829;48.990;8.346;2023-07-02T07:57:33;18.67;;;15.05;;
5054;SDS011;13829;48.990;8.346;2023-07-02T08:00:03;18.15;;;15.57;;
5054;SDS011;13829;48.990;8.346;2023-07-02T08:02:33;21.33;;;15.63;;
5054;SDS011;13829;48.990;8.346;2023-07-02T08:05:00;23.55;;;16.13;;
5054;SDS011;13829;48.990;8.346;2023-07-02T08:07:27;22.63;;;16.20;;
5054;SDS011;13829;48.990;8.346;2023-07-02T08:09:54;23.30;;;17.38;;
5054;SDS011;13829;48.990;8.346;2023-07-02T08:12:21;21.98;;;16.60;;
5054;SDS011;13829;48.990;8.346;2023-07-02T08:14:50;24.23;;;16.42;;
5054;SDS011;13829;48.990;8.346;2023-07-02T08:17:16;22.17;;;16.75;;
5054;SDS011;13829;48.990;8.346;2023-07-02T08:19:43;24.85;;;16.42;;
5054;SDS011;13829;48.990;8.346;2023-07-02T08:22:11;20.88;;;16.50;;
5054;SDS011;13829;48.990;8.346;2023-07-02T08:24:38;23.27;;;16.77;;
5054;SDS011;13829;48.990;8.346;2023-07-02T08:27:05;25.20;;;18.50;;
5054;SDS011;13829;48.990;8.346;2023-07-02T08:29:32;23.52;;;17.63;;
5054;SDS011;13829;48.990;8.346;2023-07-02T08:32:01;26.55;;;18.90;;
5054;SDS011;13829;48.990;8.346;2023-07-02T08:34:28;28.73;;;18.17;;
5054;SDS011;13829;48.990;8.346;2023-07-02T08:36:55;28.65;;;19.92;;
5054;SDS011;13829;48.990;8.346;2023-07-02T08:39:22;23.25;;;17.70;;
5054;SDS011;13829;48.990;8.346;2023-07-02T08:41:49;27.27;;;18.60;;
5054;SDS011;13829;48.990;8.346;2023-07-02T08:44:21;26.42;;;18.63;;
5054;SDS011;13829;48.990;8.346;2023-07-02T08:46:48;24.52;;;18.05;;
5054;SDS011;13829;48.990;8.346;2023-07-02T08:49:19;26.92;;;19.25;;
5054;SDS011;13829;48.990;8.346;2023-07-02T08:51:46;27.23;;;20.27;;
5054;SDS011;13829;48.990;8.346;2023-07-02T08:54:14;28.05;;;18.65;;
5054;SDS011;13829;48.990;8.346;2023-07-02T08:56:43;28.38;;;19.17;;
5054;SDS011;13829;48.990;8.346;2023-07-02T08:59:10;27.63;;;18.77;;
5054;SDS011;13829;48.990;8.346;2023-07-02T09:01:46;29.05;;;19.23;;
5054;SDS011;13829;48.990;8.346;2023-07-02T09:04:15;23.17;;;18.15;;
5054;SDS011;13829;48.990;8.346;2023-07-02T09:06:45;26.20;;;18.63;;
5054;SDS011;13829;48.990;8.346;2023-07-02T09:09:12;26.00;;;19.38;;
5054;SDS011;13829;48.990;8.346;2023-07-02T09:11:49;25.00;;;18.42;;
5054;SDS011;13829;48.990;8.346;2023-07-02T09:14:25;25.80;;;18.40;;
5054;SDS011;13829;48.990;8.346;2023-07-02T09:17:04;24.58;;;18.23;;
5054;SDS011;13829;48.990;8.346;2023-07-02T09:19:33;27.40;;;19.15;;
5054;SDS011;13829;48.990;8.346;2023-07-02T09:22:03;27.17;;;18.38;;
5054;SDS011;13829;48.990;8.346;2023-07-02T09:24:31;24.98;;;17.73;;
5054;SDS011;13829;48.990;8.346;2023-07-02T09:26:59;24.73;;;19.65;;
5054;SDS011;13829;48.990;8.346;2023-07-02T09:29:28;26.77;;;20.10;;
5054;SDS011;13829;48.990;8.346;2023-07-02T09:31:58;31.00;;;20.58;;
5054;SDS011;13829;48.990;8.346;2023-07-02T09:34:26;27.42;;;19.35;;
5054;SDS011;13829;48.990;8.346;2023-07-02T09:36:55;27.23;;;18.83;;
5054;SDS011;13829;48.990;8.346;2023-07-02T09:39:26;30.45;;;19.73;;
5054;SDS011;13829;48.990;8.346;2023-07-02T09:41:55;29.20;;;19.80;;
5054;SDS011;13829;48.990;8.346;2023-07-02T09:44:25;30.48;;;19.58;;
5054;SDS011;13829;48.990;8.346;2023-07-02T09:46:56;29.98;;;20.70;;
5054;SDS011;13829;48.990;8.346;2023-07-02T09:49:31;27.10;;;19.30;;
5054;SDS011;13829;48.990;8.346;2023-07-02T09:52:00;27.83;;;20.00;;
5054;SDS011;13829;48.990;8.346;2023-07-02T09:54:30;31.00;;;20.25;;
5054;SDS011;13829;48.990;8.346;2023-07-02T09:56:58;25.85;;;18.63;;
5054;SDS011;13829;48.990;8.346;2023-07-02T09:59:26;27.88;;;19.30;;
5054;SDS011;13829;48.990;8.346;2023-07-02T10:01:53;34.72;;;20.77;;
5054;SDS011;13829;48.990;8.346;2023-07-02T10:04:20;28.00;;;19.80;;
5054;SDS011;13829;48.990;8.346;2023-07-02T10:06:49;26.35;;;18.55;;
5054;SDS011;13829;48.990;8.346;2023-07-02T10:09:17;29.05;;;19.20;;
5054;SDS011;13829;48.990;8.346;2023-07-02T10:11:46;28.75;;;19.08;;
5054;SDS011;13829;48.990;8.346;2023-07-02T10:14:14;28.95;;;18.95;;
5054;SDS011;13829;48.990;8.346;2023-07-02T10:16:48;31.40;;;18.15;;
5054;SDS011;13829;48.990;8.346;2023-07-02T10:19:16;29.70;;;19.15;;
5054;SDS011;13829;48.990;8.346;2023-07-02T10:21:43;32.75;;;19.25;;
5054;SDS011;13829;48.990;8.346;2023-07-02T10:24:12;27.90;;;17.83;;
5054;SDS011;13829;48.990;8.346;2023-07-02T10:26:53;28.20;;;18.08;;
5054;SDS011;13829;48.990;8.346;2023-07-02T10:29:22;29.00;;;18.40;;
5054;SDS011;13829;48.990;8.346;2023-07-02T10:31:50;25.00;;;17.77;;
5054;SDS011;13829;48.990;8.346;2023-07-02T10:34:27;30.95;;;18.35;;
5054;SDS011;13829;48.990;8.346;2023-07-02T10:36:59;24.42;;;18.35;;
5054;SDS011;13829;48.990;8.346;2023-07-02T10:39:27;27.08;;;19.27;;
5054;SDS011;13829;48.990;8.346;2023-07-02T10:42:04;32.35;;;18.88;;
5054;SDS011;13829;48.990;8.346;2023-07-02T10:44:32;29.67;;;19.52;;
5054;SDS011;13829;48.990;8.346;2023-07-02T10:47:00;23.95;;;17.38;;
5054;SDS011;13829;48.990;8.346;2023-07-02T10:49:30;24.13;;;18.00;;
5054;SDS011;13829;48.990;8.346;2023-07-02T10:51:59;27.85;;;18.80;;
5054;SDS011;13829;48.990;8.346;2023-07-02T10:54:38;28.88;;;18.00;;
5054;SDS011;13829;48.990;8.346;2023-07-02T10:57:08;28.10;;;17.75;;
5054;SDS011;13829;48.990;8.346;2023-07-02T10:59:36;26.50;;;18.02;;
5054;SDS011;13829;48.990;8.346;2023-07-02T11:02:03;24.90;;;16.92;;
5054;SDS011;13829;48.990;8.346;2023-07-02T11:04:31;28.05;;;18.10;;
5054;SDS011;13829;48.990;8.346;2023-07-02T11:06:59;24.23;;;17.63;;
5054;SDS011;13829;48.990;8.346;2023-07-02T11:09:26;25.02;;;17.20;;
5054;SDS011;13829;48.990;8.346;2023-07-02T11:11:54;21.45;;;16.60;;
5054;SDS011;13829;48.990;8.346;2023-07-02T11:14:31;27.27;;;17.40;;
5054;SDS011;13829;48.990;8.346;2023-07-02T11:16:59;25.95;;;18.58;;
5054;SDS011;13829;48.990;8.346;2023-07-02T11:19:30;31.90;;;18.92;;
5054;SDS011;13829;48.990;8.346;2023-07-02T11:21:58;28.98;;;19.25;;
5054;SDS011;13829;48.990;8.346;2023-07-02T11:24:27;27.27;;;19.40;;
5054;SDS011;13829;48.990;8.346;2023-07-02T11:26:57;29.33;;;20.08;;
5054;SDS011;13829;48.990;8.346;2023-07-02T11:29:25;31.30;;;18.83;;
5054;SDS011;13829;48.990;8.346;2023-07-02T11:31:53;27.08;;;18.38;;
5054;SDS011;13829;48.990;8.346;2023-07-02T11:34:21;27.15;;;18.67;;
5054;SDS011;13829;48.990;8.346;2023-07-02T11:36:49;28.30;;;18.92;;
5054;SDS011;13829;48.990;8.346;2023-07-02T11:39:19;26.35;;;18.95;;
5054;SDS011;13829;48.990;8.346;2023-07-02T11:41:47;29.25;;;19.15;;
5054;SDS011;13829;48.990;8.346;2023-07-02T11:44:15;28.67;;;17.98;;
5054;SDS011;13829;48.990;8.346;2023-07-02T11:46:43;28.30;;;19.20;;
5054;SDS011;13829;48.990;8.346;2023-07-02T11:49:13;24.98;;;18.58;;
5054;SDS011;13829;48.990;8.346;2023-07-02T11:51:41;31.60;;;18.58;;
5054;SDS011;13829;48.990;8.346;2023-07-02T11:54:13;31.60;;;18.15;;
5054;SDS011;13829;48.990;8.346;2023-07-02T11:56:40;26.67;;;17.00;;
5054;SDS011;13829;48.990;8.346;2023-07-02T11:59:07;31.15;;;18.33;;
5054;SDS011;13829;48.990;8.346;2023-07-02T12:01:35;23.73;;;17.30;;
5054;SDS011;13829;48.990;8.346;2023-07-02T12:04:02;24.48;;;16.80;;
5054;SDS011;13829;48.990;8.346;2023-07-02T12:06:31;24.30;;;16.55;;
5054;SDS011;13829;48.990;8.346;2023-07-02T12:08:58;22.27;;;16.42;;
5054;SDS011;13829;48.990;8.346;2023-07-02T12:11:25;26.83;;;17.55;;
5054;SDS011;13829;48.990;8.346;2023-07-02T12:13:52;26.40;;;16.98;;
5054;SDS011;13829;48.990;8.346;2023-07-02T12:16:19;27.50;;;17.50;;
5054;SDS011;13829;48.990;8.346;2023-07-02T12:18:46;24.80;;;17.77;;
5054;SDS011;13829;48.990;8.346;2023-07-02T12:21:13;23.05;;;16.63;;
5054;SDS011;13829;48.990;8.346;2023-07-02T12:23:42;24.58;;;16.48;;
5054;SDS011;13829;48.990;8.346;2023-07-02T12:26:09;22.75;;;16.30;;
5054;SDS011;13829;48.990;8.346;2023-07-02T12:28:36;20.75;;;15.63;;
5054;SDS011;13829;48.990;8.346;2023-07-02T12:31:02;22.60;;;15.32;;
5054;SDS011;13829;48.990;8.346;2023-07-02T12:33:29;24.00;;;16.27;;
5054;SDS011;13829;48.990;8.346;2023-07-02T12:35:56;24.88;;;16.83;;
5054;SDS011;13829;48.990;8.346;2023-07-02T12:38:24;27.30;;;17.83;;
5054;SDS011;13829;48.990;8.346;2023-07-02T12:40:52;23.25;;;16.80;;
5054;SDS011;13829;48.990;8.346;2023-07-02T12:43:19;26.23;;;16.52;;
5054;SDS011;13829;48.990;8.346;2023-07-02T12:45:46;23.17;;;16.00;;
5054;SDS011;13829;48.990;8.346;2023-07-02T12:48:13;24.05;;;16.52;;
5054;SDS011;13829;48.990;8.346;2023-07-02T12:50:40;23.33;;;15.85;;
5054;SDS011;13829;48.990;8.346;2023-07-02T12:53:07;22.42;;;15.85;;
5054;SDS011;13829;48.990;8.346;2023-07-02T12:55:34;24.08;;;16.48;;
5054;SDS011;13829;48.990;8.346;2023-07-02T12:58:02;28.00;;;16.58;;
5054;SDS011;13829;48.990;8.346;2023-07-02T13:00:29;24.83;;;16.33;;
5054;SDS011;13829;48.990;8.346;2023-07-02T13:02:56;24.92;;;16.55;;
5054;SDS011;13829;48.990;8.346;2023-07-02T13:05:23;26.40;;;15.82;;
5054;SDS011;13829;48.990;8.346;2023-07-02T13:07:50;24.70;;;16.33;;
5054;SDS011;13829;48.990;8.346;2023-07-02T13:10:17;24.48;;;16.42;;
5054;SDS011;13829;48.990;8.346;2023-07-02T13:12:44;23.65;;;16.58;;
5054;SDS011;13829;48.990;8.346;2023-07-02T13:15:12;25.13;;;16.38;;
5054;SDS011;13829;48.990;8.346;2023-07-02T13:17:39;23.73;;;16.58;;
5054;SDS011;13829;48.990;8.346;2023-07-02T13:20:09;26.08;;;17.45;;
5054;SDS011;13829;48.990;8.346;2023-07-02T13:22:36;23.42;;;15.30;;
5054;SDS011;13829;48.990;8.346;2023-07-02T13:25:03;23.55;;;15.23;;
5054;SDS011;13829;48.990;8.346;2023-07-02T13:27:32;23.45;;;15.07;;
5054;SDS011;13829;48.990;8.346;2023-07-02T13:29:59;25.63;;;15.90;;
5054;SDS011;13829;48.990;8.346;2023-07-02T13:32:28;23.50;;;15.35;;
5054;SDS011;13829;48.990;8.346;2023-07-02T13:34:55;23.40;;;14.45;;
5054;SDS011;13829;48.990;8.346;2023-07-02T13:37:22;22.23;;;14.45;;
5054;SDS011;13829;48.990;8.346;2023-07-02T13:39:49;19.80;;;14.10;;
5054;SDS011;13829;48.990;8.346;2023-07-02T13:42:16;19.25;;;13.82;;
5054;SDS011;13829;48.990;8.346;2023-07-02T13:44:43;23.15;;;15.82;;
5054;SDS011;13829;48.990;8.346;2023-07-02T13:47:10;23.27;;;15.70;;
5054;SDS011;13829;48.990;8.346;2023-07-02T13:49:38;23.40;;;14.27;;
5054;SDS011;13829;48.990;8.346;2023-07-02T13:52:06;21.73;;;13.82;;
5054;SDS011;13829;48.990;8.346;2023-07-02T13:54:33;24.67;;;14.00;;
5054;SDS011;13829;48.990;8.346;2023-07-02T13:57:00;19.92;;;12.73;;
5054;SDS011;13829;48.990;8.346;2023-07-02T13:59:30;21.63;;;13.85;;
5054;SDS011;13829;48.990;8.346;2023-07-02T14:01:57;20.45;;;13.85;;
5054;SDS011;13829;48.990;8.346;2023-07-02T14:04:24;21.10;;;14.20;;
5054;SDS011;13829;48.990;8.346;2023-07-02T14:06:51;20.38;;;14.77;;
5054;SDS011;13829;48.990;8.346;2023-07-02T14:09:19;23.65;;;15.82;;
5054;SDS011;13829;48.990;8.346;2023-07-02T14:11:46;21.55;;;14.38;;
5054;SDS011;13829;48.990;8.346;2023-07-02T14:14:13;23.38;;;15.05;;
5054;SDS011;13829;48.990;8.346;2023-07-02T14:16:41;22.73;;;14.43;;
5054;SDS011;13829;48.990;8.346;2023-07-02T14:19:08;23.98;;;14.80;;
5054;SDS011;13829;48.990;8.346;2023-07-02T14:21:35;21.85;;;14.98;;
5054;SDS011;13829;48.990;8.346;2023-07-02T14:24:02;21.50;;;14.75;;
5054;SDS011;13829;48.990;8.346;2023-07-02T14:26:29;23.50;;;14.35;;
5054;SDS011;13829;48.990;8.346;2023-07-02T14:28:57;20.38;;;13.95;;
5054;SDS011;13829;48.990;8.346;2023-07-02T14:31:24;19.35;;;14.35;;
5054;SDS011;13829;48.990;8.346;2023-07-02T14:33:52;20.95;;;14.25;;
5054;SDS011;13829;48.990;8.346;2023-07-02T14:36:19;22.10;;;14.45;;
5054;SDS011;13829;48.990;8.346;2023-07-02T14:38:46;24.23;;;14.23;;
5054;SDS011;13829;48.990;8.346;2023-07-02T14:41:13;22.45;;;14.75;;
5054;SDS011;13829;48.990;8.346;2023-07-02T14:43:40;25.50;;;15.02;;
5054;SDS011;13829;48.990;8.346;2023-07-02T14:46:07;20.25;;;13.85;;
5054;SDS011;13829;48.990;8.346;2023-07-02T14:48:34;21.27;;;14.25;;
5054;SDS011;13829;48.990;8.346;2023-07-02T14:51:02;18.27;;;13.23;;